Time;durP1;ratioP1;P1;durP2;ratioP2;P2;SDS_P1;SDS_P2;PMS_P1;PMS_P2;Temp;Humidity;BMP_temperature;BMP_pressure;BME280_temperature;BME280_humidity;BME280_pressure;Samples;Min_cycle;Max_cycle;Signal;HPM_P1;HPM_P2
2021/12/05 00:24:10;;;;;;;0.95;0.20;;;;;;;;;;4973168;28;20031;-64
2021/12/05 00:26:36;;;;;;;0.80;0.10;;;;;;;;;;4972260;28;20043;-65
2021/12/05 00:31:58;;;;;;;0.52;0.10;;;;;;;;;;4973258;28;20414;-64
2021/12/05 00:42:44;;;;;;;0.93;0.10;;;;;;;;;;4973108;28;20062;-64
2021/12/05 00:58:41;;;;;;;0.82;0.10;;;;;;;;;;4953303;29;20034;-64
2021/12/05 01:11:42;;;;;;;;;;;;;;;;;;4953186;29;20039;-64
2021/12/05 01:16:39;;;;;;;0.65;0.10;;;;;;;;;;4953005;29;20019;-64
2021/12/05 01:19:10;;;;;;;0.38;0.15;;;;;;;;;;4952791;29;20509;-65
2021/12/05 01:21:38;;;;;;;0.65;0.10;;;;;;;;;;4952663;29;20031;-64
2021/12/05 01:24:32;;;;;;;0.60;0.40;;;;;;;;;;4936692;29;20027;-64
2021/12/05 01:32:02;;;;;;;0.75;0.20;;;;;;;;;;5034951;28;20041;-64
2021/12/05 01:45:29;;;;;;;0.38;0.10;;;;;;;;;;5053019;28;20017;-64
2021/12/05 02:36:52;;;;;;;0.38;0.10;;;;;;;;;;4984896;28;20035;-65
2021/12/05 02:42:14;;;;;;;2.22;0.10;;;;;;;;;;4970908;28;20031;-64
2021/12/05 02:44:42;;;;;;;0.55;0.22;;;;;;;;;;4970972;28;20026;-64
2021/12/05 02:47:10;;;;;;;0.43;0.10;;;;;;;;;;4970886;28;20054;-64
2021/12/05 02:49:37;;;;;;;1.25;0.30;;;;;;;;;;4973034;28;20019;-64
2021/12/05 02:52:06;;;;;;;0.40;0.10;;;;;;;;;;4974970;28;20502;-64
2021/12/05 02:54:36;;;;;;;0.30;0.10;;;;;;;;;;4974647;28;20523;-64
2021/12/05 02:57:01;;;;;;;1.20;0.28;;;;;;;;;;4974800;28;20026;-64
2021/12/05 03:02:06;;;;;;;0.25;0.10;;;;;;;;;;4974668;28;20027;-64
2021/12/05 03:04:33;;;;;;;0.30;0.20;;;;;;;;;;4974553;28;20070;-64
2021/12/05 03:07:00;;;;;;;0.28;0.10;;;;;;;;;;4974689;28;20469;-64
2021/12/05 03:09:25;;;;;;;1.15;0.50;;;;;;;;;;4974495;28;20027;-64
2021/12/05 03:11:52;;;;;;;0.28;0.10;;;;;;;;;;4974486;28;20481;-64
2021/12/05 03:14:17;;;;;;;0.77;0.22;;;;;;;;;;4974360;28;20054;-64
2021/12/05 03:16:42;;;;;;;0.63;0.38;;;;;;;;;;4974486;28;20058;-65
2021/12/05 03:19:09;;;;;;;1.58;0.25;;;;;;;;;;4997277;28;20378;-64
2021/12/05 03:21:35;;;;;;;0.38;0.20;;;;;;;;;;5035421;28;20018;-64
2021/12/05 03:24:00;;;;;;;0.30;0.20;;;;;;;;;;5035432;28;20028;-64
2021/12/05 03:26:28;;;;;;;0.57;0.10;;;;;;;;;;5035265;28;20026;-64
2021/12/05 03:28:55;;;;;;;2.65;0.20;;;;;;;;;;5034152;28;20101;-65
2021/12/05 03:31:21;;;;;;;1.45;0.20;;;;;;;;;;5035376;28;20014;-64
2021/12/05 03:33:46;;;;;;;0.35;0.10;;;;;;;;;;5035303;28;20033;-64
2021/12/05 03:36:12;;;;;;;0.43;0.20;;;;;;;;;;5035253;28;20467;-65
2021/12/05 03:38:38;;;;;;;0.00;0.00;;;;;;;;;;5035259;28;20018;-64
2021/12/05 03:41:04;;;;;;;0.70;0.20;;;;;;;;;;5033862;28;20040;-64
2021/12/05 03:43:29;;;;;;;0.30;0.10;;;;;;;;;;5046506;28;20483;-64
2021/12/05 03:45:55;;;;;;;1.05;0.30;;;;;;;;;;5055036;28;20017;-65
2021/12/05 03:48:23;;;;;;;0.35;0.08;;;;;;;;;;5054893;28;20071;-64
2021/12/05 03:50:49;;;;;;;0.20;0.20;;;;;;;;;;5055014;28;20035;-65
2021/12/05 03:53:15;;;;;;;1.83;0.20;;;;;;;;;;5054830;28;20013;-65
2021/12/05 03:55:41;;;;;;;0.57;0.15;;;;;;;;;;5054812;28;20023;-65
2021/12/05 03:58:07;;;;;;;0.75;0.30;;;;;;;;;;5054852;28;20017;-65
2021/12/05 04:00:35;;;;;;;0.77;0.20;;;;;;;;;;5053341;28;20055;-64
2021/12/05 04:03:03;;;;;;;0.20;0.20;;;;;;;;;;5054756;28;20067;-64
2021/12/05 04:05:31;;;;;;;1.00;0.45;;;;;;;;;;5054275;28;20479;-64
2021/12/05 04:07:56;;;;;;;0.20;0.17;;;;;;;;;;5054759;28;20028;-64
2021/12/05 04:10:22;;;;;;;0.30;0.20;;;;;;;;;;5036804;28;20009;-64
2021/12/05 04:12:47;;;;;;;0.60;0.20;;;;;;;;;;5054619;28;20792;-65
2021/12/05 04:15:13;;;;;;;0.30;0.20;;;;;;;;;;5054342;28;20025;-65
2021/12/05 04:17:39;;;;;;;0.38;0.20;;;;;;;;;;5054383;28;20021;-64
2021/12/05 04:20:05;;;;;;;0.20;0.00;;;;;;;;;;5054471;28;20465;-65
2021/12/05 04:22:31;;;;;;;0.70;0.22;;;;;;;;;;5054545;28;20437;-64
2021/12/05 04:24:56;;;;;;;0.95;0.52;;;;;;;;;;5054276;28;20537;-64
2021/12/05 04:27:21;;;;;;;1.02;0.30;;;;;;;;;;5054143;28;20410;-64
2021/12/05 04:29:46;;;;;;;1.07;0.20;;;;;;;;;;5054242;28;20029;-64
2021/12/05 04:32:12;;;;;;;0.30;0.10;;;;;;;;;;5054086;28;20252;-64
2021/12/05 04:34:37;;;;;;;0.53;0.20;;;;;;;;;;5054403;28;20029;-64
2021/12/05 04:37:02;;;;;;;0.40;0.20;;;;;;;;;;5054016;28;20714;-64
2021/12/05 04:39:28;;;;;;;0.40;0.10;;;;;;;;;;5053886;28;20048;-64
2021/12/05 04:41:54;;;;;;;0.63;0.30;;;;;;;;;;5054349;28;20477;-64
2021/12/05 04:44:20;;;;;;;0.77;0.10;;;;;;;;;;5053619;28;20041;-64
2021/12/05 04:46:46;;;;;;;0.57;0.15;;;;;;;;;;5054024;28;20034;-64
2021/12/05 04:49:11;;;;;;;1.00;0.22;;;;;;;;;;5035907;28;20025;-64
2021/12/05 04:51:38;;;;;;;1.08;0.45;;;;;;;;;;5053700;28;20020;-65
2021/12/05 04:54:04;;;;;;;0.22;0.05;;;;;;;;;;5053566;28;20094;-66
2021/12/05 04:56:30;;;;;;;0.10;0.10;;;;;;;;;;5053562;28;20032;-64
2021/12/05 04:58:56;;;;;;;0.52;0.10;;;;;;;;;;5053987;28;20020;-64
2021/12/05 05:01:21;;;;;;;1.50;0.10;;;;;;;;;;5053777;28;20048;-64
2021/12/05 05:03:47;;;;;;;0.15;0.15;;;;;;;;;;5053464;28;20044;-65
2021/12/05 05:06:15;;;;;;;2.00;0.28;;;;;;;;;;5053395;28;20033;-64
2021/12/05 05:08:41;;;;;;;0.35;0.20;;;;;;;;;;5053505;28;20017;-64
2021/12/05 05:11:07;;;;;;;0.63;0.20;;;;;;;;;;5053121;28;20035;-65
2021/12/05 05:13:33;;;;;;;0.45;0.30;;;;;;;;;;5052002;28;20412;-64
2021/12/05 05:15:58;;;;;;;0.45;0.13;;;;;;;;;;5053415;28;20017;-65
2021/12/05 05:18:28;;;;;;;0.25;0.10;;;;;;;;;;5053135;28;20478;-64
2021/12/05 05:24:12;;;;;;;0.15;0.08;;;;;;;;;;5011080;28;20089;-64
2021/12/05 05:29:37;;;;;;;0.52;0.20;;;;;;;;;;5010895;28;20020;-65
2021/12/05 05:48:30;;;;;;;1.00;0.30;;;;;;;;;;4971469;28;20117;-64
2021/12/05 05:50:55;;;;;;;1.00;0.30;;;;;;;;;;4971760;28;20019;-64
2021/12/05 05:53:21;;;;;;;2.90;0.20;;;;;;;;;;4971378;28;20371;-64
2021/12/05 05:55:48;;;;;;;0.60;0.10;;;;;;;;;;4971577;28;20190;-64
2021/12/05 05:58:16;;;;;;;0.75;0.17;;;;;;;;;;4971460;28;20423;-64
2021/12/05 06:01:02;;;;;;;1.05;0.22;;;;;;;;;;4971453;28;20065;-64
2021/12/05 06:03:27;;;;;;;0.22;0.10;;;;;;;;;;4971033;28;20046;-65
2021/12/05 06:06:00;;;;;;;0.10;0.10;;;;;;;;;;4971466;28;20065;-64
2021/12/05 06:08:27;;;;;;;0.30;0.10;;;;;;;;;;4955059;28;20081;-64
2021/12/05 06:10:55;;;;;;;1.08;0.28;;;;;;;;;;4971667;28;20442;-64
2021/12/05 06:13:20;;;;;;;1.05;0.10;;;;;;;;;;4982255;28;20026;-64
2021/12/05 06:15:47;;;;;;;0.50;0.20;;;;;;;;;;5032474;28;20428;-64
2021/12/05 06:18:12;;;;;;;0.80;0.20;;;;;;;;;;5032289;28;20373;-64
2021/12/05 06:20:37;;;;;;;0.10;0.10;;;;;;;;;;5032395;28;20022;-63
2021/12/05 06:23:02;;;;;;;0.87;0.20;;;;;;;;;;5031845;28;20021;-64
2021/12/05 06:25:31;;;;;;;0.75;0.20;;;;;;;;;;5031796;28;20266;-64
2021/12/05 06:28:04;;;;;;;0.63;0.40;;;;;;;;;;5032405;28;20014;-64
2021/12/05 06:30:48;;;;;;;0.30;0.20;;;;;;;;;;5032138;28;20372;-64
2021/12/05 06:38:59;;;;;;;0.10;0.10;;;;;;;;;;5032231;28;20415;-64
2021/12/05 06:46:52;;;;;;;0.43;0.10;;;;;;;;;;5052091;28;20029;-64
2021/12/05 06:49:17;;;;;;;0.82;0.10;;;;;;;;;;5051855;28;20021;-64
2021/12/05 06:51:43;;;;;;;0.63;0.10;;;;;;;;;;5052248;28;20029;-64
2021/12/05 06:54:08;;;;;;;0.10;0.10;;;;;;;;;;5051974;28;20245;-64
2021/12/05 06:56:33;;;;;;;0.10;0.00;;;;;;;;;;5051766;28;20713;-64
2021/12/05 06:58:59;;;;;;;1.17;0.20;;;;;;;;;;5051872;28;20258;-64
2021/12/05 07:01:24;;;;;;;1.27;0.15;;;;;;;;;;5051673;28;20025;-64
2021/12/05 07:03:50;;;;;;;0.77;0.28;;;;;;;;;;5051727;28;20056;-64
2021/12/05 07:06:27;;;;;;;0.38;0.10;;;;;;;;;;5051533;28;20067;-64
2021/12/05 07:08:58;;;;;;;0.30;0.10;;;;;;;;;;5033942;28;20112;-63
2021/12/05 07:11:31;;;;;;;0.20;0.00;;;;;;;;;;5051476;28;20013;-63
2021/12/05 07:14:29;;;;;;;1.98;0.30;;;;;;;;;;5051868;28;20060;-63
2021/12/05 07:17:00;;;;;;;1.43;0.30;;;;;;;;;;5051545;28;20028;-63
2021/12/05 07:21:56;;;;;;;0.63;0.17;;;;;;;;;;5052027;28;20400;-64
2021/12/05 07:24:46;;;;;;;0.35;0.15;;;;;;;;;;5051424;28;20013;-64
2021/12/05 07:40:50;;;;;;;0.28;0.10;;;;;;;;;;5055556;28;20071;-63
2021/12/05 07:43:17;;;;;;;1.35;0.38;;;;;;;;;;5054946;28;20025;-64
2021/12/05 07:45:53;;;;;;;0.70;0.10;;;;;;;;;;5054996;28;20109;-64
2021/12/05 07:48:24;;;;;;;0.57;0.13;;;;;;;;;;5054860;28;20096;-64
2021/12/05 07:51:09;;;;;;;0.57;0.20;;;;;;;;;;5055070;28;20017;-64
2021/12/05 07:53:59;;;;;;;0.13;0.13;;;;;;;;;;5054746;28;20013;-64
2021/12/05 07:56:39;;;;;;;1.08;0.17;;;;;;;;;;5054300;28;20071;-64
2021/12/05 08:15:30;;;;;;;0.10;0.00;;;;;;;;;;5054830;28;20087;-64
2021/12/05 08:17:58;;;;;;;0.20;0.05;;;;;;;;;;5054555;28;20376;-65
2021/12/05 08:20:30;;;;;;;1.80;0.20;;;;;;;;;;5036432;28;20017;-64
2021/12/05 08:22:56;;;;;;;1.38;0.43;;;;;;;;;;5054411;28;20021;-64
2021/12/05 08:25:25;;;;;;;0.50;0.20;;;;;;;;;;5054140;28;20024;-64
2021/12/05 08:27:56;;;;;;;0.45;0.10;;;;;;;;;;5054395;28;20009;-64
2021/12/05 08:30:30;;;;;;;0.40;0.10;;;;;;;;;;5054103;28;20021;-64
2021/12/05 08:33:20;;;;;;;0.13;0.10;;;;;;;;;;5054311;28;20017;-64
2021/12/05 08:41:01;;;;;;;0.65;0.22;;;;;;;;;;5054233;28;20262;-64
2021/12/05 09:30:27;;;;;;;0.10;0.10;;;;;;;;;;4895273;29;20027;-64
2021/12/05 10:08:21;;;;;;;0.82;0.20;;;;;;;;;;5052993;28;20020;-64
2021/12/05 10:26:31;;;;;;;0.35;0.10;;;;;;;;;;4970990;28;20443;-64
2021/12/05 10:37:25;;;;;;;0.98;0.20;;;;;;;;;;4970904;28;20034;-64
2021/12/05 10:40:05;;;;;;;0.10;0.10;;;;;;;;;;4971161;28;20398;-64
2021/12/05 10:42:41;;;;;;;0.50;0.03;;;;;;;;;;4970770;28;20310;-64
2021/12/05 10:45:07;;;;;;;0.70;0.10;;;;;;;;;;4970894;28;20029;-65
2021/12/05 10:47:40;;;;;;;0.98;0.10;;;;;;;;;;4970783;28;20030;-64
2021/12/05 10:50:23;;;;;;;0.25;0.10;;;;;;;;;;4970844;28;20042;-64
2021/12/05 10:53:09;;;;;;;0.50;0.10;;;;;;;;;;4971075;28;20404;-64
2021/12/05 10:55:34;;;;;;;0.40;0.20;;;;;;;;;;4970505;28;20026;-64
2021/12/05 10:58:03;;;;;;;0.67;0.10;;;;;;;;;;4971002;28;20026;-64
2021/12/05 11:00:28;;;;;;;1.33;0.20;;;;;;;;;;4970647;28;20810;-64
2021/12/05 11:03:10;;;;;;;0.57;0.10;;;;;;;;;;5007096;28;20116;-64
2021/12/05 11:05:37;;;;;;;0.88;0.20;;;;;;;;;;5051941;28;20017;-64
2021/12/05 11:08:03;;;;;;;0.10;0.00;;;;;;;;;;5051848;28;20100;-65
2021/12/05 11:10:28;;;;;;;1.42;0.10;;;;;;;;;;5035691;28;20096;-64
2021/12/05 11:12:53;;;;;;;0.43;0.30;;;;;;;;;;5055551;28;20035;-64
2021/12/05 11:15:19;;;;;;;0.90;0.10;;;;;;;;;;5055557;28;20241;-64
2021/12/05 11:17:47;;;;;;;0.85;0.03;;;;;;;;;;5055613;28;20025;-64
2021/12/05 11:20:28;;;;;;;0.10;0.00;;;;;;;;;;5055575;28;20055;-64
2021/12/05 11:22:53;;;;;;;0.20;0.05;;;;;;;;;;5055487;28;20021;-64
2021/12/05 11:25:20;;;;;;;1.85;0.20;;;;;;;;;;5055255;28;20353;-64
2021/12/05 11:27:47;;;;;;;1.75;0.17;;;;;;;;;;5055371;28;20021;-64
2021/12/05 11:30:17;;;;;;;2.50;0.30;;;;;;;;;;5055834;28;20028;-63
2021/12/05 11:32:42;;;;;;;0.60;0.10;;;;;;;;;;5055367;28;20013;-64
2021/12/05 11:35:26;;;;;;;1.55;0.22;;;;;;;;;;5055199;28;20489;-64
2021/12/05 11:37:52;;;;;;;0.55;0.32;;;;;;;;;;5055476;28;20060;-64
2021/12/05 11:40:17;;;;;;;0.27;0.07;;;;;;;;;;5055058;28;20539;-64
2021/12/05 11:42:53;;;;;;;0.32;0.10;;;;;;;;;;5055085;28;20254;-63
2021/12/05 11:45:18;;;;;;;0.75;0.20;;;;;;;;;;5054855;28;20503;-64
2021/12/05 11:47:44;;;;;;;0.75;0.10;;;;;;;;;;5054989;28;20025;-64
2021/12/05 11:50:09;;;;;;;0.03;0.00;;;;;;;;;;5055087;28;20464;-64
2021/12/05 11:52:37;;;;;;;0.70;0.30;;;;;;;;;;5054828;28;20017;-64
2021/12/05 11:55:03;;;;;;;0.80;0.10;;;;;;;;;;5054854;28;20128;-64
2021/12/05 11:57:29;;;;;;;0.30;0.30;;;;;;;;;;5054704;28;20075;-64
2021/12/05 12:00:01;;;;;;;0.63;0.30;;;;;;;;;;5055214;28;20032;-64
2021/12/05 12:02:38;;;;;;;0.30;0.10;;;;;;;;;;5054770;28;20273;-64
2021/12/05 12:05:23;;;;;;;0.35;0.10;;;;;;;;;;5054598;28;20021;-64
2021/12/05 12:08:02;;;;;;;3.20;0.47;;;;;;;;;;5053739;28;20029;-64
2021/12/05 12:10:33;;;;;;;0.43;0.00;;;;;;;;;;5054525;28;20044;-64
2021/12/05 12:13:00;;;;;;;0.70;0.20;;;;;;;;;;5054642;28;20372;-64
2021/12/05 12:15:27;;;;;;;0.10;0.10;;;;;;;;;;5054444;28;20048;-63
2021/12/05 12:17:56;;;;;;;0.40;0.10;;;;;;;;;;5054573;28;20021;-63
2021/12/05 12:20:23;;;;;;;0.85;0.32;;;;;;;;;;5054530;28;20040;-64
2021/12/05 12:22:53;;;;;;;0.10;0.00;;;;;;;;;;5053481;28;20432;-63
2021/12/05 12:25:21;;;;;;;0.15;0.10;;;;;;;;;;5054187;28;20070;-64
2021/12/05 12:27:47;;;;;;;0.25;0.10;;;;;;;;;;5054431;28;20447;-64
2021/12/05 12:30:14;;;;;;;0.20;0.13;;;;;;;;;;5054178;28;20096;-64
2021/12/05 12:32:43;;;;;;;1.20;0.15;;;;;;;;;;5054157;28;20060;-64
2021/12/05 12:35:11;;;;;;;0.40;0.10;;;;;;;;;;5054089;28;20059;-64
2021/12/05 12:37:53;;;;;;;0.75;0.05;;;;;;;;;;5053982;28;20455;-64
2021/12/05 12:40:51;;;;;;;0.32;0.10;;;;;;;;;;5053883;28;20025;-64
2021/12/05 12:43:34;;;;;;;0.20;0.20;;;;;;;;;;4953302;29;20114;-64
2021/12/05 12:46:14;;;;;;;0.73;0.10;;;;;;;;;;4937380;29;20151;-64
2021/12/05 12:48:39;;;;;;;0.20;0.10;;;;;;;;;;4953523;29;20257;-63
2021/12/05 12:51:05;;;;;;;0.73;0.30;;;;;;;;;;4953438;29;20015;-64
2021/12/05 12:53:37;;;;;;;1.60;0.40;;;;;;;;;;4952936;29;20387;-64
2021/12/05 12:56:19;;;;;;;0.03;0.03;;;;;;;;;;4953416;29;20027;-64
2021/12/05 12:58:48;;;;;;;0.95;0.10;;;;;;;;;;4953481;29;20547;-63
2021/12/05 13:01:29;;;;;;;0.50;0.10;;;;;;;;;;4953100;29;20023;-63
2021/12/05 13:12:34;;;;;;;0.32;0.20;;;;;;;;;;4952851;29;20554;-65
2021/12/05 13:15:07;;;;;;;0.40;0.20;;;;;;;;;;4953042;29;20110;-64
2021/12/05 13:17:39;;;;;;;1.15;0.10;;;;;;;;;;4952764;29;20028;-64
2021/12/05 13:20:05;;;;;;;0.47;0.10;;;;;;;;;;5052993;28;20041;-64
2021/12/05 13:22:31;;;;;;;0.65;0.15;;;;;;;;;;5035181;28;20024;-64
2021/12/05 13:25:14;;;;;;;0.20;0.10;;;;;;;;;;5035600;28;20346;-64
2021/12/05 13:27:39;;;;;;;0.20;0.05;;;;;;;;;;5053130;28;20779;-64
2021/12/05 13:30:04;;;;;;;0.55;0.10;;;;;;;;;;5053239;28;20021;-64
2021/12/05 13:32:31;;;;;;;0.28;0.28;;;;;;;;;;5052826;28;20033;-64
2021/12/05 13:34:59;;;;;;;0.52;0.10;;;;;;;;;;5053081;28;20464;-64
2021/12/05 13:37:36;;;;;;;0.60;0.25;;;;;;;;;;5052917;28;20487;-64
2021/12/05 13:40:17;;;;;;;1.02;0.10;;;;;;;;;;5052987;28;20021;-64
2021/12/05 13:42:46;;;;;;;1.17;0.30;;;;;;;;;;5052956;28;20049;-64
2021/12/05 13:45:14;;;;;;;0.20;0.00;;;;;;;;;;5052921;28;20025;-63
2021/12/05 13:47:42;;;;;;;0.68;0.20;;;;;;;;;;5052722;28;20092;-63
2021/12/05 13:50:25;;;;;;;0.60;0.20;;;;;;;;;;5052820;28;20017;-63
2021/12/05 13:52:59;;;;;;;1.77;0.32;;;;;;;;;;5052742;28;20100;-64
2021/12/05 13:55:39;;;;;;;0.22;0.20;;;;;;;;;;5052585;28;20047;-63
2021/12/05 13:58:24;;;;;;;0.13;0.00;;;;;;;;;;5034743;28;20024;-63
2021/12/05 14:00:55;;;;;;;0.10;0.03;;;;;;;;;;5052706;28;20040;-64
2021/12/05 14:03:39;;;;;;;0.80;0.10;;;;;;;;;;5052250;28;20488;-64
2021/12/05 14:06:40;;;;;;;0.75;0.10;;;;;;;;;;5052423;28;20108;-63
2021/12/05 14:09:11;;;;;;;0.63;0.25;;;;;;;;;;4935906;29;20019;-64
2021/12/05 14:11:38;;;;;;;0.50;0.10;;;;;;;;;;4951919;29;20472;-64
2021/12/05 14:14:04;;;;;;;0.13;0.10;;;;;;;;;;4952148;29;20046;-63
2021/12/05 14:16:31;;;;;;;1.20;0.20;;;;;;;;;;4951896;29;20298;-64
2021/12/05 14:18:56;;;;;;;1.05;0.45;;;;;;;;;;4952024;29;20032;-63
2021/12/05 14:21:23;;;;;;;1.05;0.20;;;;;;;;;;4951840;29;20030;-64
2021/12/05 14:23:52;;;;;;;0.60;0.20;;;;;;;;;;4951942;29;20039;-64
2021/12/05 14:26:19;;;;;;;0.30;0.10;;;;;;;;;;4951729;29;20039;-65
2021/12/05 14:28:53;;;;;;;0.80;0.10;;;;;;;;;;4951956;29;20030;-64
2021/12/05 14:31:26;;;;;;;0.28;0.10;;;;;;;;;;4951693;29;20043;-64
2021/12/05 14:33:52;;;;;;;0.63;0.20;;;;;;;;;;4951828;29;20027;-64
2021/12/05 14:36:26;;;;;;;0.63;0.10;;;;;;;;;;4951700;29;20038;-64
2021/12/05 14:39:09;;;;;;;0.22;0.17;;;;;;;;;;4935750;29;20423;-64
2021/12/05 14:41:35;;;;;;;0.52;0.20;;;;;;;;;;4951720;29;20151;-65
2021/12/05 14:44:01;;;;;;;0.68;0.10;;;;;;;;;;5040950;28;20203;-65
2021/12/05 14:46:26;;;;;;;0.47;0.20;;;;;;;;;;5055634;28;20353;-65
2021/12/05 14:48:55;;;;;;;0.57;0.10;;;;;;;;;;5056179;28;20017;-65
2021/12/05 14:51:30;;;;;;;0.20;0.00;;;;;;;;;;5056046;28;20057;-65
2021/12/05 14:53:55;;;;;;;0.35;0.00;;;;;;;;;;5056175;28;20018;-65
2021/12/05 14:56:28;;;;;;;1.02;0.10;;;;;;;;;;5055861;28;20039;-66
2021/12/05 14:59:01;;;;;;;0.82;0.22;;;;;;;;;;5038046;28;20375;-65
2021/12/05 15:01:27;;;;;;;0.50;0.10;;;;;;;;;;5055842;28;20043;-65
2021/12/05 15:03:52;;;;;;;0.30;0.10;;;;;;;;;;5055885;28;20124;-65
2021/12/05 15:06:19;;;;;;;0.55;0.03;;;;;;;;;;5055578;28;20429;-65
2021/12/05 15:08:45;;;;;;;0.55;0.20;;;;;;;;;;5055955;28;20021;-64
2021/12/05 15:11:10;;;;;;;0.17;0.03;;;;;;;;;;5055563;28;20074;-64
2021/12/05 15:13:35;;;;;;;0.20;0.10;;;;;;;;;;5055482;28;20017;-65
2021/12/05 15:16:01;;;;;;;0.22;0.10;;;;;;;;;;5055749;28;20021;-66
2021/12/05 15:18:32;;;;;;;0.85;0.10;;;;;;;;;;5055611;28;20028;-65
2021/12/05 15:20:58;;;;;;;0.35;0.10;;;;;;;;;;5055589;28;20099;-65
2021/12/05 15:23:27;;;;;;;0.55;0.10;;;;;;;;;;5055447;28;20052;-66
2021/12/05 15:25:52;;;;;;;1.73;0.13;;;;;;;;;;5055567;28;20052;-65
2021/12/05 15:28:18;;;;;;;0.43;0.20;;;;;;;;;;5054053;28;20044;-65
2021/12/05 15:30:45;;;;;;;0.60;0.30;;;;;;;;;;5054164;28;20372;-65
2021/12/05 15:33:15;;;;;;;0.63;0.20;;;;;;;;;;5055288;28;20384;-65
2021/12/05 15:35:42;;;;;;;0.35;0.08;;;;;;;;;;5055298;28;20495;-65
2021/12/05 15:38:09;;;;;;;0.75;0.15;;;;;;;;;;5055314;28;20021;-65
2021/12/05 15:40:35;;;;;;;0.47;0.05;;;;;;;;;;5055404;28;20067;-64
2021/12/05 15:43:03;;;;;;;0.68;0.10;;;;;;;;;;5049531;28;20062;-65
2021/12/05 15:45:29;;;;;;;0.40;0.20;;;;;;;;;;5054915;28;20070;-65
2021/12/05 15:47:54;;;;;;;1.02;0.10;;;;;;;;;;5055219;28;20013;-65
2021/12/05 15:50:20;;;;;;;1.45;0.00;;;;;;;;;;5054946;28;20096;-65
2021/12/05 15:52:56;;;;;;;1.08;0.20;;;;;;;;;;5055103;28;20017;-65
2021/12/05 15:55:22;;;;;;;1.95;0.25;;;;;;;;;;5054769;28;20025;-65
2021/12/05 15:57:49;;;;;;;1.00;0.10;;;;;;;;;;5054920;28;20252;-65
2021/12/05 16:00:26;;;;;;;0.35;0.10;;;;;;;;;;5054767;28;20017;-65
2021/12/05 16:02:56;;;;;;;1.08;0.15;;;;;;;;;;5054613;28;20042;-65
2021/12/05 16:05:22;;;;;;;0.75;0.20;;;;;;;;;;5054526;28;20028;-65
2021/12/05 16:07:48;;;;;;;0.22;0.15;;;;;;;;;;5054665;28;20024;-65
2021/12/05 16:10:23;;;;;;;0.30;0.10;;;;;;;;;;5054598;28;20021;-66
2021/12/05 16:12:49;;;;;;;0.30;0.10;;;;;;;;;;5036843;28;20021;-65
2021/12/05 16:15:16;;;;;;;0.20;0.10;;;;;;;;;;5054410;28;20091;-65
2021/12/05 16:17:41;;;;;;;1.30;0.20;;;;;;;;;;5054556;28;20029;-65
2021/12/05 16:20:15;;;;;;;0.68;0.10;;;;;;;;;;5054513;28;20436;-65
2021/12/05 16:22:59;;;;;;;0.65;0.10;;;;;;;;;;5054564;28;20143;-65
2021/12/05 16:25:25;;;;;;;0.20;0.05;;;;;;;;;;5054268;28;20048;-65
2021/12/05 16:27:52;;;;;;;1.30;0.45;;;;;;;;;;5054420;28;20017;-64
2021/12/05 16:30:24;;;;;;;0.13;0.00;;;;;;;;;;5054062;28;20025;-65
2021/12/05 16:32:49;;;;;;;0.22;0.10;;;;;;;;;;5054425;28;20021;-65
2021/12/05 16:35:25;;;;;;;0.75;0.20;;;;;;;;;;5054053;28;20469;-65
2021/12/05 16:37:50;;;;;;;0.57;0.10;;;;;;;;;;5054157;28;20021;-65
2021/12/05 16:40:15;;;;;;;1.08;0.10;;;;;;;;;;5054041;28;20074;-65
2021/12/05 16:42:41;;;;;;;0.20;0.10;;;;;;;;;;5054029;28;20021;-65
2021/12/05 16:45:06;;;;;;;0.33;0.10;;;;;;;;;;5053988;28;20021;-65
2021/12/05 16:47:31;;;;;;;0.60;0.20;;;;;;;;;;5054350;28;20295;-65
2021/12/05 16:49:58;;;;;;;1.23;0.20;;;;;;;;;;5054129;28;20092;-65
2021/12/05 16:52:23;;;;;;;1.80;0.28;;;;;;;;;;5036142;28;20466;-64
2021/12/05 16:54:53;;;;;;;0.43;0.10;;;;;;;;;;5053831;28;20048;-64
2021/12/05 16:57:24;;;;;;;0.20;0.10;;;;;;;;;;5053724;28;20555;-64
2021/12/05 16:59:54;;;;;;;0.85;0.20;;;;;;;;;;5053902;28;20048;-64
2021/12/05 17:02:22;;;;;;;0.60;0.17;;;;;;;;;;5053439;28;20171;-64
2021/12/05 17:05:00;;;;;;;0.25;0.10;;;;;;;;;;5053770;28;20643;-65
2021/12/05 17:07:38;;;;;;;0.30;0.15;;;;;;;;;;5053012;28;20017;-64
2021/12/05 17:10:08;;;;;;;0.22;0.00;;;;;;;;;;5053674;28;20024;-64
2021/12/05 17:12:35;;;;;;;0.90;0.10;;;;;;;;;;5053387;28;20017;-65
2021/12/05 17:15:19;;;;;;;0.75;0.13;;;;;;;;;;5053409;28;20037;-66
2021/12/05 17:17:45;;;;;;;0.28;0.10;;;;;;;;;;5053458;28;20526;-64
2021/12/05 17:20:20;;;;;;;1.35;0.20;;;;;;;;;;5053660;28;20464;-64
2021/12/05 17:22:56;;;;;;;0.28;0.10;;;;;;;;;;5053418;28;20468;-64
2021/12/05 17:25:35;;;;;;;0.88;0.38;;;;;;;;;;5053049;28;20025;-65
2021/12/05 17:28:02;;;;;;;1.55;0.20;;;;;;;;;;5053215;28;20029;-66
2021/12/05 17:30:27;;;;;;;1.23;0.13;;;;;;;;;;5053103;28;20385;-65
2021/12/05 17:32:52;;;;;;;0.40;0.20;;;;;;;;;;5053206;28;20513;-65
2021/12/05 17:35:18;;;;;;;0.93;0.20;;;;;;;;;;5052930;28;20039;-64
2021/12/05 17:37:44;;;;;;;0.17;0.10;;;;;;;;;;5053053;28;20261;-64
2021/12/05 17:40:10;;;;;;;1.00;0.10;;;;;;;;;;5053007;28;20250;-65
2021/12/05 17:42:35;;;;;;;1.45;0.10;;;;;;;;;;5052836;28;20523;-65
2021/12/05 17:45:01;;;;;;;1.10;0.20;;;;;;;;;;5052812;28;20028;-65
2021/12/05 17:47:28;;;;;;;0.60;0.40;;;;;;;;;;5053023;28;20016;-65
2021/12/05 17:49:55;;;;;;;0.30;0.10;;;;;;;;;;5052953;28;20079;-65
2021/12/05 17:52:24;;;;;;;0.20;0.10;;;;;;;;;;5052565;28;20032;-66
2021/12/05 17:55:02;;;;;;;0.30;0.00;;;;;;;;;;5052820;28;20035;-65
2021/12/05 17:57:37;;;;;;;0.10;0.10;;;;;;;;;;5052582;28;20009;-65
2021/12/05 18:00:14;;;;;;;0.73;0.10;;;;;;;;;;5052721;28;20029;-65
2021/12/05 18:02:43;;;;;;;1.30;0.15;;;;;;;;;;5052519;28;20551;-64
2021/12/05 18:05:23;;;;;;;0.03;0.00;;;;;;;;;;5052418;28;20489;-64
2021/12/05 18:07:49;;;;;;;0.50;0.10;;;;;;;;;;5052473;28;20108;-64
2021/12/05 18:10:15;;;;;;;0.80;0.10;;;;;;;;;;5052670;28;20350;-65
2021/12/05 18:12:42;;;;;;;0.13;0.10;;;;;;;;;;5052481;28;20025;-65
2021/12/05 18:15:12;;;;;;;1.15;0.20;;;;;;;;;;5052387;28;20079;-65
2021/12/05 18:17:40;;;;;;;0.10;0.10;;;;;;;;;;5052219;28;20422;-65
2021/12/05 18:20:06;;;;;;;0.70;0.10;;;;;;;;;;5033740;28;20020;-66
2021/12/05 18:22:31;;;;;;;1.10;0.43;;;;;;;;;;5052138;28;20025;-65
2021/12/05 18:24:57;;;;;;;0.63;0.10;;;;;;;;;;5052246;28;20031;-65
2021/12/05 18:27:22;;;;;;;0.52;0.10;;;;;;;;;;5052345;28;20025;-65
2021/12/05 18:29:47;;;;;;;0.70;0.10;;;;;;;;;;5052459;28;20017;-65
2021/12/05 18:32:14;;;;;;;1.17;0.10;;;;;;;;;;5052143;28;20041;-65
2021/12/05 18:34:39;;;;;;;0.30;0.10;;;;;;;;;;5034256;28;20372;-65
2021/12/05 18:37:05;;;;;;;0.10;0.10;;;;;;;;;;5052171;28;20455;-64
2021/12/05 18:39:33;;;;;;;1.65;0.30;;;;;;;;;;5051837;28;20249;-64
2021/12/05 18:42:02;;;;;;;0.22;0.17;;;;;;;;;;5052226;28;20017;-64
2021/12/05 18:44:30;;;;;;;0.35;0.10;;;;;;;;;;5051932;28;20452;-64
2021/12/05 18:46:56;;;;;;;0.30;0.15;;;;;;;;;;5052017;28;20027;-65
2021/12/05 18:49:23;;;;;;;0.20;0.08;;;;;;;;;;5051929;28;20017;-65
2021/12/05 18:51:48;;;;;;;0.52;0.30;;;;;;;;;;5052063;28;20035;-65
2021/12/05 18:54:13;;;;;;;0.85;0.10;;;;;;;;;;5051933;28;20013;-65
2021/12/05 18:56:38;;;;;;;0.93;0.28;;;;;;;;;;5052039;28;20206;-66
2021/12/05 18:59:04;;;;;;;0.55;0.10;;;;;;;;;;5034040;28;20456;-66
2021/12/05 19:04:24;;;;;;;0.15;0.10;;;;;;;;;;5051789;28;20523;-64
2021/12/05 19:06:55;;;;;;;0.30;0.20;;;;;;;;;;5051874;28;20062;-64
2021/12/05 19:11:40;;;;;;;1.13;0.17;;;;;;;;;;5051669;28;20504;-64
2021/12/05 19:12:26;;;;;;;0.60;0.25;;;;;;;;;;5051344;28;20036;-65
2021/12/05 19:14:54;;;;;;;0.28;0.00;;;;;;;;;;5051818;28;20013;-64
2021/12/05 19:17:24;;;;;;;0.80;0.43;;;;;;;;;;5051684;28;20021;-65
2021/12/05 19:19:50;;;;;;;1.00;0.30;;;;;;;;;;5051769;28;20013;-65
2021/12/05 19:22:18;;;;;;;0.63;0.10;;;;;;;;;;5051560;28;20058;-64
2021/12/05 19:24:45;;;;;;;1.35;0.15;;;;;;;;;;5051850;28;20024;-65
2021/12/05 19:27:11;;;;;;;0.98;0.32;;;;;;;;;;5051508;28;20376;-64
2021/12/05 19:29:37;;;;;;;0.43;0.10;;;;;;;;;;5051553;28;20465;-64
2021/12/05 19:32:03;;;;;;;0.10;0.10;;;;;;;;;;5054085;28;20016;-65
2021/12/05 19:34:28;;;;;;;0.57;0.30;;;;;;;;;;5037403;28;20021;-65
2021/12/05 19:36:54;;;;;;;0.17;0.08;;;;;;;;;;5055374;28;20032;-65
2021/12/05 19:39:23;;;;;;;1.35;0.43;;;;;;;;;;5055201;28;20021;-65
2021/12/05 19:41:48;;;;;;;1.10;0.10;;;;;;;;;;5055275;28;20103;-65
2021/12/05 19:44:15;;;;;;;0.38;0.20;;;;;;;;;;5054815;28;20096;-65
2021/12/05 19:46:41;;;;;;;1.02;0.15;;;;;;;;;;5055125;28;20029;-66
2021/12/05 19:49:06;;;;;;;0.15;0.00;;;;;;;;;;5055039;28;20413;-65
2021/12/05 19:51:32;;;;;;;1.10;0.20;;;;;;;;;;5054864;28;20056;-64
2021/12/05 19:53:57;;;;;;;0.88;0.15;;;;;;;;;;5055128;28;20355;-65
2021/12/05 19:56:24;;;;;;;0.30;0.30;;;;;;;;;;5054786;28;20500;-65
2021/12/05 19:58:49;;;;;;;0.35;0.10;;;;;;;;;;5037193;28;20073;-65
2021/12/05 20:01:14;;;;;;;0.60;0.20;;;;;;;;;;5055025;28;20453;-65
2021/12/05 20:03:40;;;;;;;0.60;0.28;;;;;;;;;;5054598;28;20282;-65
2021/12/05 20:06:06;;;;;;;0.40;0.05;;;;;;;;;;5054759;28;20029;-65
2021/12/05 20:08:31;;;;;;;0.38;0.10;;;;;;;;;;5054619;28;20057;-66
2021/12/05 20:10:59;;;;;;;1.73;0.57;;;;;;;;;;5054720;28;20009;-65
2021/12/05 20:13:24;;;;;;;1.52;0.20;;;;;;;;;;5054551;28;20020;-65
2021/12/05 20:15:49;;;;;;;0.60;0.13;;;;;;;;;;5054633;28;20017;-65